sensor_id;sensor_type;location;lat;lon;timestamp;temperature;humidity
44823;DHT22;51097;51.984;5.650;2023-05-07T00:00:17;18.90;99.90
44823;DHT22;51097;51.984;5.650;2023-05-07T00:02:44;18.80;99.90
44823;DHT22;51097;51.984;5.650;2023-05-07T00:05:11;18.80;99.90
44823;DHT22;51097;51.984;5.650;2023-05-07T00:07:36;18.80;99.90
44823;DHT22;51097;51.984;5.650;2023-05-07T00:10:03;18.90;99.90
44823;DHT22;51097;51.984;5.650;2023-05-07T00:12:29;18.80;99.90
44823;DHT22;51097;51.984;5.650;2023-05-07T00:14:57;18.80;99.90
44823;DHT22;51097;51.984;5.650;2023-05-07T00:17:22;18.80;99.90
44823;DHT22;51097;51.984;5.650;2023-05-07T00:19:48;18.70;99.90
44823;DHT22;51097;51.984;5.650;2023-05-07T00:22:14;18.70;99.90
44823;DHT22;51097;51.984;5.650;2023-05-07T00:24:39;18.70;99.90
44823;DHT22;51097;51.984;5.650;2023-05-07T00:27:05;18.70;99.90
44823;DHT22;51097;51.984;5.650;2023-05-07T00:29:31;18.70;99.90
44823;DHT22;51097;51.984;5.650;2023-05-07T00:31:56;18.70;99.90
44823;DHT22;51097;51.984;5.650;2023-05-07T00:34:22;18.70;99.90
44823;DHT22;51097;51.984;5.650;2023-05-07T00:36:48;18.70;99.90
44823;DHT22;51097;51.984;5.650;2023-05-07T00:39:13;18.60;99.90
44823;DHT22;51097;51.984;5.650;2023-05-07T00:41:39;18.50;99.90
44823;DHT22;51097;51.984;5.650;2023-05-07T00:44:04;18.50;99.90
44823;DHT22;51097;51.984;5.650;2023-05-07T00:46:31;18.50;99.90
44823;DHT22;51097;51.984;5.650;2023-05-07T00:48:57;18.50;99.90
44823;DHT22;51097;51.984;5.650;2023-05-07T00:51:24;18.50;99.90
44823;DHT22;51097;51.984;5.650;2023-05-07T00:53:52;18.50;99.90
44823;DHT22;51097;51.984;5.650;2023-05-07T00:56:20;18.40;99.90
44823;DHT22;51097;51.984;5.650;2023-05-07T00:58:46;18.40;99.90
44823;DHT22;51097;51.984;5.650;2023-05-07T01:01:12;18.30;99.90
44823;DHT22;51097;51.984;5.650;2023-05-07T01:03:38;18.30;99.90
44823;DHT22;51097;51.984;5.650;2023-05-07T01:06:04;18.20;99.90
44823;DHT22;51097;51.984;5.650;2023-05-07T01:08:32;18.30;99.90
44823;DHT22;51097;51.984;5.650;2023-05-07T01:10:58;18.30;99.90
44823;DHT22;51097;51.984;5.650;2023-05-07T01:13:24;18.30;99.90
44823;DHT22;51097;51.984;5.650;2023-05-07T01:15:50;18.30;99.90
44823;DHT22;51097;51.984;5.650;2023-05-07T01:18:16;18.30;99.90
44823;DHT22;51097;51.984;5.650;2023-05-07T01:20:42;18.30;99.90
44823;DHT22;51097;51.984;5.650;2023-05-07T01:23:08;18.30;99.90
44823;DHT22;51097;51.984;5.650;2023-05-07T01:25:36;18.30;99.90
44823;DHT22;51097;51.984;5.650;2023-05-07T01:28:01;18.30;99.90
44823;DHT22;51097;51.984;5.650;2023-05-07T01:30:27;18.30;99.90
44823;DHT22;51097;51.984;5.650;2023-05-07T01:35:32;18.30;99.90
44823;DHT22;51097;51.984;5.650;2023-05-07T01:37:59;18.40;99.90
44823;DHT22;51097;51.984;5.650;2023-05-07T01:40:26;18.50;99.90
44823;DHT22;51097;51.984;5.650;2023-05-07T01:42:53;18.30;99.90
44823;DHT22;51097;51.984;5.650;2023-05-07T01:45:19;18.30;99.90
44823;DHT22;51097;51.984;5.650;2023-05-07T01:47:45;18.40;99.90
44823;DHT22;51097;51.984;5.650;2023-05-07T01:50:12;18.40;99.90
44823;DHT22;51097;51.984;5.650;2023-05-07T01:52:38;18.50;99.90
44823;DHT22;51097;51.984;5.650;2023-05-07T01:55:05;18.40;99.90
44823;DHT22;51097;51.984;5.650;2023-05-07T01:57:30;18.40;99.90
44823;DHT22;51097;51.984;5.650;2023-05-07T01:59:56;18.40;99.90
44823;DHT22;51097;51.984;5.650;2023-05-07T02:02:21;18.40;99.90
44823;DHT22;51097;51.984;5.650;2023-05-07T02:04:47;18.40;99.90
44823;DHT22;51097;51.984;5.650;2023-05-07T02:07:12;18.40;99.90
44823;DHT22;51097;51.984;5.650;2023-05-07T02:09:38;18.40;99.90
44823;DHT22;51097;51.984;5.650;2023-05-07T02:12:04;18.50;99.90
44823;DHT22;51097;51.984;5.650;2023-05-07T02:14:29;18.50;99.90
44823;DHT22;51097;51.984;5.650;2023-05-07T02:16:55;18.50;99.90
44823;DHT22;51097;51.984;5.650;2023-05-07T02:19:20;18.40;99.90
44823;DHT22;51097;51.984;5.650;2023-05-07T02:21:47;18.50;99.90
44823;DHT22;51097;51.984;5.650;2023-05-07T02:24:13;18.50;99.90
44823;DHT22;51097;51.984;5.650;2023-05-07T02:26:40;18.60;99.90
44823;DHT22;51097;51.984;5.650;2023-05-07T02:29:06;18.50;99.90
44823;DHT22;51097;51.984;5.650;2023-05-07T02:31:31;18.40;99.90
44823;DHT22;51097;51.984;5.650;2023-05-07T02:33:59;18.40;99.90
44823;DHT22;51097;51.984;5.650;2023-05-07T02:36:24;18.30;99.90
44823;DHT22;51097;51.984;5.650;2023-05-07T02:38:50;18.40;99.90
44823;DHT22;51097;51.984;5.650;2023-05-07T02:41:16;18.50;99.90
44823;DHT22;51097;51.984;5.650;2023-05-07T02:43:41;18.60;99.90
44823;DHT22;51097;51.984;5.650;2023-05-07T02:46:08;18.40;99.90
44823;DHT22;51097;51.984;5.650;2023-05-07T02:48:34;18.40;99.90
44823;DHT22;51097;51.984;5.650;2023-05-07T02:51:00;18.40;99.90
44823;DHT22;51097;51.984;5.650;2023-05-07T02:53:26;18.40;99.90
44823;DHT22;51097;51.984;5.650;2023-05-07T02:55:53;18.30;99.90
44823;DHT22;51097;51.984;5.650;2023-05-07T02:58:19;18.40;99.90
44823;DHT22;51097;51.984;5.650;2023-05-07T03:00:45;18.30;99.90
44823;DHT22;51097;51.984;5.650;2023-05-07T03:03:10;18.30;99.90
44823;DHT22;51097;51.984;5.650;2023-05-07T03:05:36;18.30;99.90
44823;DHT22;51097;51.984;5.650;2023-05-07T03:08:02;18.30;99.90
44823;DHT22;51097;51.984;5.650;2023-05-07T03:10:29;18.30;99.90
44823;DHT22;51097;51.984;5.650;2023-05-07T03:12:55;18.20;99.90
44823;DHT22;51097;51.984;5.650;2023-05-07T03:15:20;18.20;99.90
44823;DHT22;51097;51.984;5.650;2023-05-07T03:17:47;18.40;99.90
44823;DHT22;51097;51.984;5.650;2023-05-07T03:20:13;18.30;99.90
44823;DHT22;51097;51.984;5.650;2023-05-07T03:22:39;18.20;99.90
44823;DHT22;51097;51.984;5.650;2023-05-07T03:25:05;18.30;99.90
44823;DHT22;51097;51.984;5.650;2023-05-07T03:27:31;18.20;99.90
44823;DHT22;51097;51.984;5.650;2023-05-07T03:29:56;18.10;99.90
44823;DHT22;51097;51.984;5.650;2023-05-07T03:32:22;18.20;99.90
44823;DHT22;51097;51.984;5.650;2023-05-07T03:34:47;18.10;99.90
44823;DHT22;51097;51.984;5.650;2023-05-07T03:37:13;18.10;99.90
44823;DHT22;51097;51.984;5.650;2023-05-07T03:39:38;18.10;99.90
44823;DHT22;51097;51.984;5.650;2023-05-07T03:42:04;18.10;99.90
44823;DHT22;51097;51.984;5.650;2023-05-07T03:44:29;18.10;99.90
44823;DHT22;51097;51.984;5.650;2023-05-07T03:46:55;17.90;99.90
44823;DHT22;51097;51.984;5.650;2023-05-07T03:49:21;18.00;99.90
44823;DHT22;51097;51.984;5.650;2023-05-07T03:51:46;18.10;99.90
44823;DHT22;51097;51.984;5.650;2023-05-07T03:54:12;18.10;99.90
44823;DHT22;51097;51.984;5.650;2023-05-07T03:56:37;18.10;99.90
44823;DHT22;51097;51.984;5.650;2023-05-07T03:59:03;18.10;99.90
44823;DHT22;51097;51.984;5.650;2023-05-07T04:01:29;18.10;99.90
44823;DHT22;51097;51.984;5.650;2023-05-07T04:03:55;18.10;99.90
44823;DHT22;51097;51.984;5.650;2023-05-07T04:06:20;18.10;99.90
44823;DHT22;51097;51.984;5.650;2023-05-07T04:08:46;18.10;99.90
44823;DHT22;51097;51.984;5.650;2023-05-07T04:11:12;18.20;99.90
44823;DHT22;51097;51.984;5.650;2023-05-07T04:13:37;18.20;99.90
44823;DHT22;51097;51.984;5.650;2023-05-07T04:16:04;18.20;99.90
44823;DHT22;51097;51.984;5.650;2023-05-07T04:18:30;18.20;99.90
44823;DHT22;51097;51.984;5.650;2023-05-07T04:20:55;18.20;99.90
44823;DHT22;51097;51.984;5.650;2023-05-07T04:23:21;18.30;99.90
44823;DHT22;51097;51.984;5.650;2023-05-07T04:25:47;18.30;99.90
44823;DHT22;51097;51.984;5.650;2023-05-07T04:28:12;18.30;99.90
44823;DHT22;51097;51.984;5.650;2023-05-07T04:30:38;18.30;99.90
44823;DHT22;51097;51.984;5.650;2023-05-07T04:33:04;18.30;99.90
44823;DHT22;51097;51.984;5.650;2023-05-07T04:35:29;18.20;99.90
44823;DHT22;51097;51.984;5.650;2023-05-07T04:37:55;18.30;99.90
44823;DHT22;51097;51.984;5.650;2023-05-07T04:40:20;18.30;99.90
44823;DHT22;51097;51.984;5.650;2023-05-07T04:42:46;18.30;99.90
44823;DHT22;51097;51.984;5.650;2023-05-07T04:45:11;18.30;99.90
44823;DHT22;51097;51.984;5.650;2023-05-07T04:47:38;18.40;99.90
44823;DHT22;51097;51.984;5.650;2023-05-07T04:50:05;18.20;99.90
44823;DHT22;51097;51.984;5.650;2023-05-07T04:52:30;18.30;99.90
44823;DHT22;51097;51.984;5.650;2023-05-07T04:54:58;18.30;99.90
44823;DHT22;51097;51.984;5.650;2023-05-07T04:57:24;18.40;99.90
44823;DHT22;51097;51.984;5.650;2023-05-07T04:59:50;18.50;99.90
44823;DHT22;51097;51.984;5.650;2023-05-07T05:02:16;18.40;99.90
44823;DHT22;51097;51.984;5.650;2023-05-07T05:04:41;18.40;99.90
44823;DHT22;51097;51.984;5.650;2023-05-07T05:07:07;18.50;99.90
44823;DHT22;51097;51.984;5.650;2023-05-07T05:09:32;18.40;99.90
44823;DHT22;51097;51.984;5.650;2023-05-07T05:11:59;18.60;99.90
44823;DHT22;51097;51.984;5.650;2023-05-07T05:14:24;18.50;99.90
44823;DHT22;51097;51.984;5.650;2023-05-07T05:16:50;18.50;99.90
44823;DHT22;51097;51.984;5.650;2023-05-07T05:19:16;18.50;99.90
44823;DHT22;51097;51.984;5.650;2023-05-07T05:21:41;18.50;99.90
44823;DHT22;51097;51.984;5.650;2023-05-07T05:24:07;18.50;99.90
44823;DHT22;51097;51.984;5.650;2023-05-07T05:26:33;18.50;99.90
44823;DHT22;51097;51.984;5.650;2023-05-07T05:28:58;18.50;99.90
44823;DHT22;51097;51.984;5.650;2023-05-07T05:31:24;18.50;99.90
44823;DHT22;51097;51.984;5.650;2023-05-07T05:33:50;18.50;99.90
44823;DHT22;51097;51.984;5.650;2023-05-07T05:36:15;18.50;99.90
44823;DHT22;51097;51.984;5.650;2023-05-07T05:38:41;18.60;99.90
44823;DHT22;51097;51.984;5.650;2023-05-07T05:41:07;18.40;99.90
44823;DHT22;51097;51.984;5.650;2023-05-07T05:43:32;18.50;99.90
44823;DHT22;51097;51.984;5.650;2023-05-07T05:45:58;18.60;99.90
44823;DHT22;51097;51.984;5.650;2023-05-07T05:48:24;18.50;99.90
44823;DHT22;51097;51.984;5.650;2023-05-07T05:50:49;18.60;99.90
44823;DHT22;51097;51.984;5.650;2023-05-07T05:53:15;18.70;99.90
44823;DHT22;51097;51.984;5.650;2023-05-07T05:55:41;18.80;99.90
44823;DHT22;51097;51.984;5.650;2023-05-07T05:58:07;18.80;99.90
44823;DHT22;51097;51.984;5.650;2023-05-07T06:00:33;18.70;99.90
44823;DHT22;51097;51.984;5.650;2023-05-07T06:02:58;18.70;99.90
44823;DHT22;51097;51.984;5.650;2023-05-07T06:05:24;18.70;99.90
44823;DHT22;51097;51.984;5.650;2023-05-07T06:07:49;18.70;99.90
44823;DHT22;51097;51.984;5.650;2023-05-07T06:10:15;18.80;99.90
44823;DHT22;51097;51.984;5.650;2023-05-07T06:12:41;18.90;99.90
44823;DHT22;51097;51.984;5.650;2023-05-07T06:15:06;18.80;99.90
44823;DHT22;51097;51.984;5.650;2023-05-07T06:17:32;18.80;99.90
44823;DHT22;51097;51.984;5.650;2023-05-07T06:19:58;18.80;99.90
44823;DHT22;51097;51.984;5.650;2023-05-07T06:22:23;18.70;99.90
44823;DHT22;51097;51.984;5.650;2023-05-07T06:24:56;18.90;99.90
44823;DHT22;51097;51.984;5.650;2023-05-07T06:27:21;19.10;99.90
44823;DHT22;51097;51.984;5.650;2023-05-07T06:29:48;19.00;99.90
44823;DHT22;51097;51.984;5.650;2023-05-07T06:32:14;19.00;99.90
44823;DHT22;51097;51.984;5.650;2023-05-07T06:34:40;19.10;99.90
44823;DHT22;51097;51.984;5.650;2023-05-07T06:37:06;19.10;99.90
44823;DHT22;51097;51.984;5.650;2023-05-07T06:39:32;19.10;99.90
44823;DHT22;51097;51.984;5.650;2023-05-07T06:41:59;19.10;99.90
44823;DHT22;51097;51.984;5.650;2023-05-07T06:44:25;19.20;99.90
44823;DHT22;51097;51.984;5.650;2023-05-07T06:46:50;19.30;99.90
44823;DHT22;51097;51.984;5.650;2023-05-07T06:49:23;19.40;99.90
44823;DHT22;51097;51.984;5.650;2023-05-07T06:51:49;19.40;99.90
44823;DHT22;51097;51.984;5.650;2023-05-07T06:54:15;19.50;99.90
44823;DHT22;51097;51.984;5.650;2023-05-07T06:56:40;19.50;99.90
44823;DHT22;51097;51.984;5.650;2023-05-07T06:59:08;19.60;99.90
44823;DHT22;51097;51.984;5.650;2023-05-07T07:01:34;19.60;99.90
44823;DHT22;51097;51.984;5.650;2023-05-07T07:03:59;19.80;99.90
44823;DHT22;51097;51.984;5.650;2023-05-07T07:06:25;19.90;99.90
44823;DHT22;51097;51.984;5.650;2023-05-07T07:08:51;19.90;99.90
44823;DHT22;51097;51.984;5.650;2023-05-07T07:11:16;19.90;99.90
44823;DHT22;51097;51.984;5.650;2023-05-07T07:13:44;20.00;99.90
44823;DHT22;51097;51.984;5.650;2023-05-07T07:33:21;20.20;99.90
44823;DHT22;51097;51.984;5.650;2023-05-07T07:36:05;20.40;99.90
44823;DHT22;51097;51.984;5.650;2023-05-07T07:39:11;20.50;99.90
44823;DHT22;51097;51.984;5.650;2023-05-07T07:41:49;20.50;99.90
44823;DHT22;51097;51.984;5.650;2023-05-07T07:44:25;20.60;99.90
44823;DHT22;51097;51.984;5.650;2023-05-07T07:47:08;20.60;99.90
44823;DHT22;51097;51.984;5.650;2023-05-07T07:49:34;20.80;99.90
44823;DHT22;51097;51.984;5.650;2023-05-07T07:52:25;20.80;99.90
44823;DHT22;51097;51.984;5.650;2023-05-07T07:55:14;20.70;99.90
44823;DHT22;51097;51.984;5.650;2023-05-07T08:00:34;20.90;99.90
44823;DHT22;51097;51.984;5.650;2023-05-07T08:03:05;21.20;99.90
44823;DHT22;51097;51.984;5.650;2023-05-07T08:06:04;21.20;99.90
44823;DHT22;51097;51.984;5.650;2023-05-07T08:08:57;21.30;99.90
44823;DHT22;51097;51.984;5.650;2023-05-07T08:12:06;21.50;99.90
44823;DHT22;51097;51.984;5.650;2023-05-07T08:14:32;21.70;99.90
44823;DHT22;51097;51.984;5.650;2023-05-07T08:17:05;21.90;99.90
44823;DHT22;51097;51.984;5.650;2023-05-07T08:20:21;21.70;99.90
44823;DHT22;51097;51.984;5.650;2023-05-07T08:39:30;22.50;99.90
44823;DHT22;51097;51.984;5.650;2023-05-07T09:40:01;25.10;99.90
44823;DHT22;51097;51.984;5.650;2023-05-07T09:46:03;25.40;99.90
44823;DHT22;51097;51.984;5.650;2023-05-07T09:48:33;25.80;99.90
44823;DHT22;51097;51.984;5.650;2023-05-07T09:51:52;25.80;99.90
44823;DHT22;51097;51.984;5.650;2023-05-07T09:54:21;25.90;99.90
44823;DHT22;51097;51.984;5.650;2023-05-07T09:57:44;25.80;99.90
44823;DHT22;51097;51.984;5.650;2023-05-07T10:06:50;26.00;99.90
44823;DHT22;51097;51.984;5.650;2023-05-07T10:09:21;26.10;99.90
44823;DHT22;51097;51.984;5.650;2023-05-07T10:12:04;26.10;99.90
44823;DHT22;51097;51.984;5.650;2023-05-07T10:14:32;26.20;99.90
44823;DHT22;51097;51.984;5.650;2023-05-07T10:16:59;26.40;99.90
44823;DHT22;51097;51.984;5.650;2023-05-07T10:19:26;26.60;99.90
44823;DHT22;51097;51.984;5.650;2023-05-07T10:21:55;26.70;99.90
44823;DHT22;51097;51.984;5.650;2023-05-07T10:24:25;26.80;99.90
44823;DHT22;51097;51.984;5.650;2023-05-07T10:26:52;26.90;99.90
44823;DHT22;51097;51.984;5.650;2023-05-07T10:34:45;27.40;99.90
44823;DHT22;51097;51.984;5.650;2023-05-07T10:37:12;27.50;99.90
44823;DHT22;51097;51.984;5.650;2023-05-07T10:39:38;27.50;99.90
44823;DHT22;51097;51.984;5.650;2023-05-07T10:42:10;27.70;99.90
44823;DHT22;51097;51.984;5.650;2023-05-07T10:44:36;27.90;99.90
44823;DHT22;51097;51.984;5.650;2023-05-07T10:47:13;27.90;99.90
44823;DHT22;51097;51.984;5.650;2023-05-07T10:54:36;28.00;99.90
44823;DHT22;51097;51.984;5.650;2023-05-07T10:57:43;28.20;99.90
44823;DHT22;51097;51.984;5.650;2023-05-07T11:05:28;28.20;99.90
44823;DHT22;51097;51.984;5.650;2023-05-07T11:49:56;26.10;99.90
44823;DHT22;51097;51.984;5.650;2023-05-07T12:37:35;26.80;99.90
44823;DHT22;51097;51.984;5.650;2023-05-07T12:40:09;30.20;99.90
44823;DHT22;51097;51.984;5.650;2023-05-07T12:42:36;30.50;99.50
44823;DHT22;51097;51.984;5.650;2023-05-07T12:45:11;30.80;99.70
44823;DHT22;51097;51.984;5.650;2023-05-07T12:47:37;31.00;99.60
44823;DHT22;51097;51.984;5.650;2023-05-07T12:50:05;31.40;99.90
44823;DHT22;51097;51.984;5.650;2023-05-07T12:52:31;31.60;98.00
44823;DHT22;51097;51.984;5.650;2023-05-07T12:55:04;31.80;98.30
44823;DHT22;51097;51.984;5.650;2023-05-07T12:57:31;32.20;98.20
44823;DHT22;51097;51.984;5.650;2023-05-07T13:00:02;32.40;97.30
44823;DHT22;51097;51.984;5.650;2023-05-07T13:02:38;32.50;95.50
44823;DHT22;51097;51.984;5.650;2023-05-07T13:05:04;32.60;95.60
44823;DHT22;51097;51.984;5.650;2023-05-07T13:07:29;32.60;95.20
44823;DHT22;51097;51.984;5.650;2023-05-07T13:09:55;32.60;94.40
44823;DHT22;51097;51.984;5.650;2023-05-07T13:12:20;32.60;95.10
44823;DHT22;51097;51.984;5.650;2023-05-07T13:14:46;32.50;93.00
44823;DHT22;51097;51.984;5.650;2023-05-07T13:17:11;32.30;92.70
44823;DHT22;51097;51.984;5.650;2023-05-07T13:19:37;32.10;94.10
44823;DHT22;51097;51.984;5.650;2023-05-07T13:22:03;32.00;93.00
44823;DHT22;51097;51.984;5.650;2023-05-07T13:24:29;32.00;93.00
44823;DHT22;51097;51.984;5.650;2023-05-07T13:26:54;31.90;92.10
44823;DHT22;51097;51.984;5.650;2023-05-07T13:29:20;31.70;92.60
44823;DHT22;51097;51.984;5.650;2023-05-07T13:31:50;31.40;92.70
44823;DHT22;51097;51.984;5.650;2023-05-07T13:34:16;31.20;91.40
44823;DHT22;51097;51.984;5.650;2023-05-07T13:36:41;31.30;91.60
44823;DHT22;51097;51.984;5.650;2023-05-07T13:39:07;31.20;92.10
44823;DHT22;51097;51.984;5.650;2023-05-07T13:41:32;31.30;93.20
44823;DHT22;51097;51.984;5.650;2023-05-07T13:43:58;31.40;93.50
44823;DHT22;51097;51.984;5.650;2023-05-07T13:46:23;31.30;92.90
44823;DHT22;51097;51.984;5.650;2023-05-07T13:48:49;31.50;93.90
44823;DHT22;51097;51.984;5.650;2023-05-07T13:51:16;31.60;91.70
44823;DHT22;51097;51.984;5.650;2023-05-07T13:53:42;31.70;92.20
44823;DHT22;51097;51.984;5.650;2023-05-07T13:56:07;31.90;93.20
44823;DHT22;51097;51.984;5.650;2023-05-07T13:58:33;32.00;93.40
44823;DHT22;51097;51.984;5.650;2023-05-07T14:00:59;32.00;91.10
44823;DHT22;51097;51.984;5.650;2023-05-07T14:03:24;32.10;91.70
44823;DHT22;51097;51.984;5.650;2023-05-07T14:05:50;32.20;92.60
44823;DHT22;51097;51.984;5.650;2023-05-07T14:08:15;32.50;92.10
44823;DHT22;51097;51.984;5.650;2023-05-07T14:10:43;32.40;90.50
44823;DHT22;51097;51.984;5.650;2023-05-07T14:13:09;32.50;90.40
44823;DHT22;51097;51.984;5.650;2023-05-07T14:15:35;32.60;90.50
44823;DHT22;51097;51.984;5.650;2023-05-07T14:18:02;32.60;91.20
44823;DHT22;51097;51.984;5.650;2023-05-07T14:20:27;32.60;90.60
44823;DHT22;51097;51.984;5.650;2023-05-07T14:22:53;32.60;90.60
44823;DHT22;51097;51.984;5.650;2023-05-07T14:25:18;32.60;91.40
44823;DHT22;51097;51.984;5.650;2023-05-07T14:27:44;32.40;92.10
44823;DHT22;51097;51.984;5.650;2023-05-07T14:30:10;32.40;91.70
44823;DHT22;51097;51.984;5.650;2023-05-07T14:32:36;32.00;92.10
44823;DHT22;51097;51.984;5.650;2023-05-07T14:35:01;31.90;91.80
44823;DHT22;51097;51.984;5.650;2023-05-07T14:37:27;31.50;92.20
44823;DHT22;51097;51.984;5.650;2023-05-07T14:39:52;31.60;92.00
44823;DHT22;51097;51.984;5.650;2023-05-07T14:42:18;31.50;92.50
44823;DHT22;51097;51.984;5.650;2023-05-07T14:44:43;31.40;92.40
44823;DHT22;51097;51.984;5.650;2023-05-07T14:47:10;31.20;92.80
44823;DHT22;51097;51.984;5.650;2023-05-07T14:49:36;31.00;92.70
44823;DHT22;51097;51.984;5.650;2023-05-07T14:52:01;31.00;93.00
44823;DHT22;51097;51.984;5.650;2023-05-07T14:54:27;31.00;92.90
44823;DHT22;51097;51.984;5.650;2023-05-07T14:56:53;31.00;92.60
44823;DHT22;51097;51.984;5.650;2023-05-07T14:59:19;30.90;93.70
44823;DHT22;51097;51.984;5.650;2023-05-07T15:01:47;30.80;93.20
44823;DHT22;51097;51.984;5.650;2023-05-07T15:04:12;30.70;93.60
44823;DHT22;51097;51.984;5.650;2023-05-07T15:06:38;30.50;92.90
44823;DHT22;51097;51.984;5.650;2023-05-07T15:09:04;30.50;93.80
44823;DHT22;51097;51.984;5.650;2023-05-07T15:11:29;30.60;93.60
44823;DHT22;51097;51.984;5.650;2023-05-07T15:13:55;30.70;94.20
44823;DHT22;51097;51.984;5.650;2023-05-07T15:16:21;30.60;93.90
44823;DHT22;51097;51.984;5.650;2023-05-07T15:18:46;30.60;93.50
44823;DHT22;51097;51.984;5.650;2023-05-07T15:21:12;30.40;93.10
44823;DHT22;51097;51.984;5.650;2023-05-07T15:23:38;30.20;92.90
44823;DHT22;51097;51.984;5.650;2023-05-07T15:26:04;29.90;93.10
44823;DHT22;51097;51.984;5.650;2023-05-07T15:28:30;29.60;93.10
44823;DHT22;51097;51.984;5.650;2023-05-07T15:30:56;29.00;92.60
44823;DHT22;51097;51.984;5.650;2023-05-07T15:33:23;28.40;92.50
44823;DHT22;51097;51.984;5.650;2023-05-07T15:35:48;27.80;93.10
44823;DHT22;51097;51.984;5.650;2023-05-07T15:38:14;27.30;93.70
44823;DHT22;51097;51.984;5.650;2023-05-07T15:40:41;26.60;94.30
44823;DHT22;51097;51.984;5.650;2023-05-07T15:43:08;26.10;95.10
44823;DHT22;51097;51.984;5.650;2023-05-07T15:45:39;25.80;96.00
44823;DHT22;51097;51.984;5.650;2023-05-07T15:48:05;25.40;96.60
44823;DHT22;51097;51.984;5.650;2023-05-07T15:50:31;24.90;97.80
44823;DHT22;51097;51.984;5.650;2023-05-07T15:52:57;24.50;99.10
44823;DHT22;51097;51.984;5.650;2023-05-07T15:55:23;24.30;99.90
44823;DHT22;51097;51.984;5.650;2023-05-07T15:57:48;24.00;99.90
44823;DHT22;51097;51.984;5.650;2023-05-07T16:00:14;23.90;99.90
44823;DHT22;51097;51.984;5.650;2023-05-07T16:02:41;23.90;99.90
44823;DHT22;51097;51.984;5.650;2023-05-07T16:05:07;23.70;99.90
44823;DHT22;51097;51.984;5.650;2023-05-07T16:07:35;23.70;99.90
44823;DHT22;51097;51.984;5.650;2023-05-07T16:10:01;23.60;99.90
44823;DHT22;51097;51.984;5.650;2023-05-07T16:12:26;23.50;99.90
44823;DHT22;51097;51.984;5.650;2023-05-07T16:14:52;23.60;99.90
44823;DHT22;51097;51.984;5.650;2023-05-07T16:17:17;23.60;99.90
44823;DHT22;51097;51.984;5.650;2023-05-07T16:19:43;23.60;99.90
44823;DHT22;51097;51.984;5.650;2023-05-07T16:22:08;23.60;99.90
44823;DHT22;51097;51.984;5.650;2023-05-07T16:24:34;23.60;99.90
44823;DHT22;51097;51.984;5.650;2023-05-07T16:27:00;23.50;99.90
44823;DHT22;51097;51.984;5.650;2023-05-07T16:29:25;23.50;99.90
44823;DHT22;51097;51.984;5.650;2023-05-07T16:31:52;23.50;99.90
44823;DHT22;51097;51.984;5.650;2023-05-07T16:34:18;23.40;99.90
44823;DHT22;51097;51.984;5.650;2023-05-07T16:36:44;23.40;99.90
44823;DHT22;51097;51.984;5.650;2023-05-07T16:39:09;23.20;99.90
44823;DHT22;51097;51.984;5.650;2023-05-07T16:41:35;23.20;99.90
44823;DHT22;51097;51.984;5.650;2023-05-07T16:44:01;23.10;99.90
44823;DHT22;51097;51.984;5.650;2023-05-07T16:46:26;23.00;99.90
44823;DHT22;51097;51.984;5.650;2023-05-07T16:48:52;22.90;99.90
44823;DHT22;51097;51.984;5.650;2023-05-07T16:51:18;23.00;99.90
44823;DHT22;51097;51.984;5.650;2023-05-07T16:53:43;22.90;99.90
44823;DHT22;51097;51.984;5.650;2023-05-07T16:56:09;22.70;99.90
44823;DHT22;51097;51.984;5.650;2023-05-07T16:58:34;22.80;99.90
44823;DHT22;51097;51.984;5.650;2023-05-07T17:01:00;22.90;99.90
44823;DHT22;51097;51.984;5.650;2023-05-07T17:03:27;22.70;99.90
44823;DHT22;51097;51.984;5.650;2023-05-07T17:05:53;22.70;99.90
44823;DHT22;51097;51.984;5.650;2023-05-07T17:08:19;22.80;99.90
44823;DHT22;51097;51.984;5.650;2023-05-07T17:10:45;22.40;99.90
44823;DHT22;51097;51.984;5.650;2023-05-07T17:13:11;22.50;99.90
44823;DHT22;51097;51.984;5.650;2023-05-07T17:15:37;22.40;99.90
44823;DHT22;51097;51.984;5.650;2023-05-07T17:18:03;22.40;99.90
44823;DHT22;51097;51.984;5.650;2023-05-07T17:20:28;22.30;99.90
44823;DHT22;51097;51.984;5.650;2023-05-07T17:22:54;22.10;99.90
44823;DHT22;51097;51.984;5.650;2023-05-07T17:25:20;22.00;99.90
44823;DHT22;51097;51.984;5.650;2023-05-07T17:27:47;21.90;99.90
44823;DHT22;51097;51.984;5.650;2023-05-07T17:30:13;22.10;99.90
44823;DHT22;51097;51.984;5.650;2023-05-07T17:32:40;22.00;99.90
44823;DHT22;51097;51.984;5.650;2023-05-07T17:35:06;21.90;99.90
44823;DHT22;51097;51.984;5.650;2023-05-07T17:37:32;21.90;99.90
44823;DHT22;51097;51.984;5.650;2023-05-07T17:39:57;21.90;99.90
44823;DHT22;51097;51.984;5.650;2023-05-07T17:42:23;21.90;99.90
44823;DHT22;51097;51.984;5.650;2023-05-07T17:44:49;21.90;99.90
44823;DHT22;51097;51.984;5.650;2023-05-07T17:47:14;21.90;99.90
44823;DHT22;51097;51.984;5.650;2023-05-07T17:49:40;21.80;99.90
44823;DHT22;51097;51.984;5.650;2023-05-07T17:52:06;21.80;99.90
44823;DHT22;51097;51.984;5.650;2023-05-07T17:54:33;21.80;99.90
44823;DHT22;51097;51.984;5.650;2023-05-07T17:56:58;21.70;99.90
44823;DHT22;51097;51.984;5.650;2023-05-07T17:59:24;21.80;99.90
44823;DHT22;51097;51.984;5.650;2023-05-07T18:01:49;21.70;99.90
44823;DHT22;51097;51.984;5.650;2023-05-07T18:04:15;21.60;99.90
44823;DHT22;51097;51.984;5.650;2023-05-07T18:06:41;21.70;99.90
44823;DHT22;51097;51.984;5.650;2023-05-07T18:09:07;21.70;99.90
44823;DHT22;51097;51.984;5.650;2023-05-07T18:11:33;21.70;99.90
44823;DHT22;51097;51.984;5.650;2023-05-07T18:13:59;21.70;99.90
44823;DHT22;51097;51.984;5.650;2023-05-07T18:16:25;21.50;99.90
44823;DHT22;51097;51.984;5.650;2023-05-07T18:18:50;21.60;99.90
44823;DHT22;51097;51.984;5.650;2023-05-07T18:21:16;21.60;99.90
44823;DHT22;51097;51.984;5.650;2023-05-07T18:23:49;21.50;99.90
44823;DHT22;51097;51.984;5.650;2023-05-07T18:26:16;21.50;99.90
44823;DHT22;51097;51.984;5.650;2023-05-07T18:28:42;21.40;99.90
44823;DHT22;51097;51.984;5.650;2023-05-07T18:31:08;21.40;99.90
44823;DHT22;51097;51.984;5.650;2023-05-07T18:33:34;21.40;99.90
44823;DHT22;51097;51.984;5.650;2023-05-07T18:36:00;21.50;99.90
44823;DHT22;51097;51.984;5.650;2023-05-07T18:38:25;21.40;99.90
44823;DHT22;51097;51.984;5.650;2023-05-07T18:40:51;21.40;99.90
44823;DHT22;51097;51.984;5.650;2023-05-07T18:43:18;21.40;99.90
44823;DHT22;51097;51.984;5.650;2023-05-07T18:45:46;21.20;99.90
44823;DHT22;51097;51.984;5.650;2023-05-07T18:48:12;21.50;99.90
44823;DHT22;51097;51.984;5.650;2023-05-07T18:50:41;21.20;99.90
44823;DHT22;51097;51.984;5.650;2023-05-07T18:53:07;21.20;99.90
44823;DHT22;51097;51.984;5.650;2023-05-07T18:55:33;21.10;99.90
44823;DHT22;51097;51.984;5.650;2023-05-07T18:57:58;21.20;99.90
44823;DHT22;51097;51.984;5.650;2023-05-07T19:00:24;21.10;99.90